sensor_id;sensor_type;location;lat;lon;timestamp;P1;durP1;ratioP1;P2;durP2;ratioP2
2872;SDS011;1444;49.166;7.312;2022-12-07T00:02:26;25.17;;;11.77;;
2872;SDS011;1444;49.166;7.312;2022-12-07T00:04:53;26.40;;;9.80;;
2872;SDS011;1444;49.166;7.312;2022-12-07T00:07:19;34.23;;;13.53;;
2872;SDS011;1444;49.166;7.312;2022-12-07T00:09:46;20.80;;;9.27;;
2872;SDS011;1444;49.166;7.312;2022-12-07T00:12:13;35.53;;;11.87;;
2872;SDS011;1444;49.166;7.312;2022-12-07T00:14:40;24.50;;;10.97;;
2872;SDS011;1444;49.166;7.312;2022-12-07T00:17:06;21.70;;;9.90;;
2872;SDS011;1444;49.166;7.312;2022-12-07T00:19:34;18.30;;;8.63;;
2872;SDS011;1444;49.166;7.312;2022-12-07T00:22:01;26.00;;;11.20;;
2872;SDS011;1444;49.166;7.312;2022-12-07T00:24:28;36.07;;;13.13;;
2872;SDS011;1444;49.166;7.312;2022-12-07T00:26:55;28.60;;;10.13;;
2872;SDS011;1444;49.166;7.312;2022-12-07T00:29:21;30.53;;;12.53;;
2872;SDS011;1444;49.166;7.312;2022-12-07T00:31:48;24.53;;;11.50;;
2872;SDS011;1444;49.166;7.312;2022-12-07T00:34:16;34.80;;;13.67;;
2872;SDS011;1444;49.166;7.312;2022-12-07T00:36:45;19.50;;;9.60;;
2872;SDS011;1444;49.166;7.312;2022-12-07T00:39:12;36.53;;;12.83;;
2872;SDS011;1444;49.166;7.312;2022-12-07T00:41:39;29.40;;;10.90;;
2872;SDS011;1444;49.166;7.312;2022-12-07T00:44:06;24.17;;;10.87;;
2872;SDS011;1444;49.166;7.312;2022-12-07T00:46:33;38.07;;;14.23;;
2872;SDS011;1444;49.166;7.312;2022-12-07T00:49:00;23.67;;;10.53;;
2872;SDS011;1444;49.166;7.312;2022-12-07T00:51:26;28.70;;;12.23;;
2872;SDS011;1444;49.166;7.312;2022-12-07T00:53:54;26.03;;;12.37;;
2872;SDS011;1444;49.166;7.312;2022-12-07T00:56:22;27.60;;;11.53;;
2872;SDS011;1444;49.166;7.312;2022-12-07T00:58:51;19.07;;;9.23;;
2872;SDS011;1444;49.166;7.312;2022-12-07T01:01:18;29.73;;;12.67;;
2872;SDS011;1444;49.166;7.312;2022-12-07T01:03:45;24.60;;;9.33;;
2872;SDS011;1444;49.166;7.312;2022-12-07T01:06:13;24.73;;;11.03;;
2872;SDS011;1444;49.166;7.312;2022-12-07T01:08:41;19.80;;;10.50;;
2872;SDS011;1444;49.166;7.312;2022-12-07T01:11:11;24.93;;;10.70;;
2872;SDS011;1444;49.166;7.312;2022-12-07T01:13:40;22.00;;;10.83;;
2872;SDS011;1444;49.166;7.312;2022-12-07T01:16:07;29.30;;;12.07;;
2872;SDS011;1444;49.166;7.312;2022-12-07T01:18:36;20.73;;;11.53;;
2872;SDS011;1444;49.166;7.312;2022-12-07T01:21:03;17.97;;;10.00;;
2872;SDS011;1444;49.166;7.312;2022-12-07T01:23:32;21.77;;;10.43;;
2872;SDS011;1444;49.166;7.312;2022-12-07T01:26:01;26.60;;;13.53;;
2872;SDS011;1444;49.166;7.312;2022-12-07T01:28:30;21.83;;;11.27;;
2872;SDS011;1444;49.166;7.312;2022-12-07T01:30:58;22.50;;;10.47;;
2872;SDS011;1444;49.166;7.312;2022-12-07T01:33:26;31.80;;;14.20;;
2872;SDS011;1444;49.166;7.312;2022-12-07T01:35:54;34.13;;;15.30;;
2872;SDS011;1444;49.166;7.312;2022-12-07T01:38:26;24.03;;;10.87;;
2872;SDS011;1444;49.166;7.312;2022-12-07T01:40:56;19.23;;;9.97;;
2872;SDS011;1444;49.166;7.312;2022-12-07T01:43:24;27.40;;;12.60;;
2872;SDS011;1444;49.166;7.312;2022-12-07T01:45:54;25.37;;;11.77;;
2872;SDS011;1444;49.166;7.312;2022-12-07T01:48:22;31.17;;;13.57;;
2872;SDS011;1444;49.166;7.312;2022-12-07T01:50:52;40.93;;;11.67;;
2872;SDS011;1444;49.166;7.312;2022-12-07T01:53:21;31.23;;;13.57;;
2872;SDS011;1444;49.166;7.312;2022-12-07T01:55:51;27.63;;;12.70;;
2872;SDS011;1444;49.166;7.312;2022-12-07T01:58:19;41.17;;;16.10;;
2872;SDS011;1444;49.166;7.312;2022-12-07T02:00:46;21.40;;;12.37;;
2872;SDS011;1444;49.166;7.312;2022-12-07T02:03:15;26.87;;;12.97;;
2872;SDS011;1444;49.166;7.312;2022-12-07T02:05:45;29.53;;;14.80;;
2872;SDS011;1444;49.166;7.312;2022-12-07T02:08:14;29.10;;;13.03;;
2872;SDS011;1444;49.166;7.312;2022-12-07T02:10:41;28.03;;;11.47;;
2872;SDS011;1444;49.166;7.312;2022-12-07T02:13:09;25.53;;;11.40;;
2872;SDS011;1444;49.166;7.312;2022-12-07T02:15:41;26.10;;;12.57;;
2872;SDS011;1444;49.166;7.312;2022-12-07T02:18:19;25.40;;;10.57;;
2872;SDS011;1444;49.166;7.312;2022-12-07T02:20:53;23.10;;;11.40;;
2872;SDS011;1444;49.166;7.312;2022-12-07T02:26:40;21.90;;;12.80;;
2872;SDS011;1444;49.166;7.312;2022-12-07T02:29:31;26.33;;;12.60;;
2872;SDS011;1444;49.166;7.312;2022-12-07T02:32:03;22.83;;;10.80;;
2872;SDS011;1444;49.166;7.312;2022-12-07T02:34:36;27.20;;;12.97;;
2872;SDS011;1444;49.166;7.312;2022-12-07T02:37:09;27.53;;;11.60;;
2872;SDS011;1444;49.166;7.312;2022-12-07T02:39:44;19.73;;;11.23;;
2872;SDS011;1444;49.166;7.312;2022-12-07T02:42:17;41.20;;;15.27;;
2872;SDS011;1444;49.166;7.312;2022-12-07T02:44:49;23.83;;;10.43;;
2872;SDS011;1444;49.166;7.312;2022-12-07T02:47:17;39.03;;;15.53;;
2872;SDS011;1444;49.166;7.312;2022-12-07T02:49:47;21.90;;;8.67;;
2872;SDS011;1444;49.166;7.312;2022-12-07T02:52:15;45.13;;;16.90;;
2872;SDS011;1444;49.166;7.312;2022-12-07T02:54:42;25.60;;;12.03;;
2872;SDS011;1444;49.166;7.312;2022-12-07T02:57:13;26.17;;;10.27;;
2872;SDS011;1444;49.166;7.312;2022-12-07T02:59:51;23.27;;;11.10;;
2872;SDS011;1444;49.166;7.312;2022-12-07T03:02:31;21.13;;;10.40;;
2872;SDS011;1444;49.166;7.312;2022-12-07T03:05:18;20.80;;;10.13;;
2872;SDS011;1444;49.166;7.312;2022-12-07T03:08:02;23.27;;;10.27;;
2872;SDS011;1444;49.166;7.312;2022-12-07T03:10:35;19.03;;;9.10;;
2872;SDS011;1444;49.166;7.312;2022-12-07T03:13:09;25.13;;;11.50;;
2872;SDS011;1444;49.166;7.312;2022-12-07T03:15:42;24.50;;;10.73;;
2872;SDS011;1444;49.166;7.312;2022-12-07T03:18:13;34.37;;;12.03;;
2872;SDS011;1444;49.166;7.312;2022-12-07T03:20:45;18.07;;;8.80;;
2872;SDS011;1444;49.166;7.312;2022-12-07T03:23:13;38.47;;;14.63;;
2872;SDS011;1444;49.166;7.312;2022-12-07T03:25:44;19.60;;;10.33;;
2872;SDS011;1444;49.166;7.312;2022-12-07T03:28:14;40.30;;;15.87;;
2872;SDS011;1444;49.166;7.312;2022-12-07T03:30:45;32.73;;;11.90;;
2872;SDS011;1444;49.166;7.312;2022-12-07T03:33:15;32.20;;;14.50;;
2872;SDS011;1444;49.166;7.312;2022-12-07T03:35:47;21.23;;;9.67;;
2872;SDS011;1444;49.166;7.312;2022-12-07T03:38:18;32.63;;;14.37;;
2872;SDS011;1444;49.166;7.312;2022-12-07T03:40:50;21.93;;;10.43;;
2872;SDS011;1444;49.166;7.312;2022-12-07T03:43:23;31.97;;;12.00;;
2872;SDS011;1444;49.166;7.312;2022-12-07T03:45:53;29.63;;;13.80;;
2872;SDS011;1444;49.166;7.312;2022-12-07T03:48:28;35.60;;;14.00;;
2872;SDS011;1444;49.166;7.312;2022-12-07T03:51:03;25.33;;;11.30;;
2872;SDS011;1444;49.166;7.312;2022-12-07T03:53:39;19.13;;;10.47;;
2872;SDS011;1444;49.166;7.312;2022-12-07T03:56:09;21.47;;;11.60;;
2872;SDS011;1444;49.166;7.312;2022-12-07T03:58:38;22.73;;;10.60;;
2872;SDS011;1444;49.166;7.312;2022-12-07T04:01:07;22.57;;;10.30;;
2872;SDS011;1444;49.166;7.312;2022-12-07T04:03:34;19.70;;;9.70;;
2872;SDS011;1444;49.166;7.312;2022-12-07T04:06:01;29.03;;;13.63;;
2872;SDS011;1444;49.166;7.312;2022-12-07T04:08:28;29.30;;;11.70;;
2872;SDS011;1444;49.166;7.312;2022-12-07T04:10:54;19.43;;;9.77;;
2872;SDS011;1444;49.166;7.312;2022-12-07T04:13:21;36.30;;;15.00;;
2872;SDS011;1444;49.166;7.312;2022-12-07T04:15:48;26.90;;;9.93;;
2872;SDS011;1444;49.166;7.312;2022-12-07T04:18:16;42.47;;;17.87;;
2872;SDS011;1444;49.166;7.312;2022-12-07T04:20:42;31.10;;;11.17;;
2872;SDS011;1444;49.166;7.312;2022-12-07T04:23:09;26.27;;;11.00;;
2872;SDS011;1444;49.166;7.312;2022-12-07T04:25:36;23.97;;;11.53;;
2872;SDS011;1444;49.166;7.312;2022-12-07T04:28:03;19.60;;;9.00;;
2872;SDS011;1444;49.166;7.312;2022-12-07T04:30:30;25.50;;;11.30;;
2872;SDS011;1444;49.166;7.312;2022-12-07T04:32:57;18.83;;;10.47;;
2872;SDS011;1444;49.166;7.312;2022-12-07T04:35:25;35.90;;;15.57;;
2872;SDS011;1444;49.166;7.312;2022-12-07T04:37:51;31.00;;;14.03;;
2872;SDS011;1444;49.166;7.312;2022-12-07T04:40:18;40.70;;;16.90;;
2872;SDS011;1444;49.166;7.312;2022-12-07T04:42:45;18.53;;;10.33;;
2872;SDS011;1444;49.166;7.312;2022-12-07T04:45:11;30.77;;;12.17;;
2872;SDS011;1444;49.166;7.312;2022-12-07T04:47:38;24.57;;;11.23;;
2872;SDS011;1444;49.166;7.312;2022-12-07T04:50:05;27.93;;;13.83;;
2872;SDS011;1444;49.166;7.312;2022-12-07T04:52:34;26.80;;;12.10;;
2872;SDS011;1444;49.166;7.312;2022-12-07T04:55:01;25.67;;;11.77;;
2872;SDS011;1444;49.166;7.312;2022-12-07T04:57:28;28.20;;;14.03;;
2872;SDS011;1444;49.166;7.312;2022-12-07T04:59:54;33.47;;;12.60;;
2872;SDS011;1444;49.166;7.312;2022-12-07T05:02:21;38.83;;;16.83;;
2872;SDS011;1444;49.166;7.312;2022-12-07T05:04:48;30.40;;;14.77;;
2872;SDS011;1444;49.166;7.312;2022-12-07T05:07:14;34.10;;;13.80;;
2872;SDS011;1444;49.166;7.312;2022-12-07T05:09:43;32.50;;;13.07;;
2872;SDS011;1444;49.166;7.312;2022-12-07T05:12:09;34.83;;;15.07;;
2872;SDS011;1444;49.166;7.312;2022-12-07T05:14:36;23.10;;;11.17;;
2872;SDS011;1444;49.166;7.312;2022-12-07T05:17:03;23.67;;;11.33;;
2872;SDS011;1444;49.166;7.312;2022-12-07T05:19:30;25.90;;;12.20;;
2872;SDS011;1444;49.166;7.312;2022-12-07T05:21:56;22.20;;;9.77;;
2872;SDS011;1444;49.166;7.312;2022-12-07T05:24:23;33.87;;;14.83;;
2872;SDS011;1444;49.166;7.312;2022-12-07T05:26:51;29.80;;;14.00;;
2872;SDS011;1444;49.166;7.312;2022-12-07T05:29:18;29.13;;;11.13;;
2872;SDS011;1444;49.166;7.312;2022-12-07T05:31:45;24.03;;;10.67;;
2872;SDS011;1444;49.166;7.312;2022-12-07T05:34:11;25.83;;;12.60;;
2872;SDS011;1444;49.166;7.312;2022-12-07T05:36:39;22.60;;;10.60;;
2872;SDS011;1444;49.166;7.312;2022-12-07T05:39:06;26.20;;;10.80;;
2872;SDS011;1444;49.166;7.312;2022-12-07T05:41:33;24.00;;;11.10;;
2872;SDS011;1444;49.166;7.312;2022-12-07T05:44:18;32.73;;;11.80;;
2872;SDS011;1444;49.166;7.312;2022-12-07T05:46:45;24.37;;;11.13;;
2872;SDS011;1444;49.166;7.312;2022-12-07T05:49:12;26.27;;;12.40;;
2872;SDS011;1444;49.166;7.312;2022-12-07T05:51:39;23.00;;;11.13;;
2872;SDS011;1444;49.166;7.312;2022-12-07T05:54:05;25.60;;;10.90;;
2872;SDS011;1444;49.166;7.312;2022-12-07T05:56:32;28.27;;;13.97;;
2872;SDS011;1444;49.166;7.312;2022-12-07T05:58:59;24.67;;;12.83;;
2872;SDS011;1444;49.166;7.312;2022-12-07T06:01:45;20.13;;;10.07;;
2872;SDS011;1444;49.166;7.312;2022-12-07T06:04:12;33.13;;;15.60;;
2872;SDS011;1444;49.166;7.312;2022-12-07T06:06:38;23.97;;;12.20;;
2872;SDS011;1444;49.166;7.312;2022-12-07T06:09:06;18.67;;;10.00;;
2872;SDS011;1444;49.166;7.312;2022-12-07T06:11:33;24.67;;;13.50;;
2872;SDS011;1444;49.166;7.312;2022-12-07T06:14:18;33.77;;;14.90;;
2872;SDS011;1444;49.166;7.312;2022-12-07T06:16:46;24.40;;;12.17;;
2872;SDS011;1444;49.166;7.312;2022-12-07T06:19:13;30.17;;;13.77;;
2872;SDS011;1444;49.166;7.312;2022-12-07T06:21:39;29.40;;;11.47;;
2872;SDS011;1444;49.166;7.312;2022-12-07T06:24:07;24.10;;;12.37;;
2872;SDS011;1444;49.166;7.312;2022-12-07T06:26:35;34.50;;;12.93;;
2872;SDS011;1444;49.166;7.312;2022-12-07T06:29:01;24.43;;;10.70;;
2872;SDS011;1444;49.166;7.312;2022-12-07T06:31:28;29.83;;;14.73;;
2872;SDS011;1444;49.166;7.312;2022-12-07T06:33:58;27.60;;;12.73;;
2872;SDS011;1444;49.166;7.312;2022-12-07T06:36:25;49.07;;;16.23;;
2872;SDS011;1444;49.166;7.312;2022-12-07T06:38:52;26.53;;;12.57;;
2872;SDS011;1444;49.166;7.312;2022-12-07T06:41:19;28.60;;;12.53;;
2872;SDS011;1444;49.166;7.312;2022-12-07T06:43:46;38.70;;;11.20;;
2872;SDS011;1444;49.166;7.312;2022-12-07T06:46:13;29.23;;;13.40;;
2872;SDS011;1444;49.166;7.312;2022-12-07T06:48:40;26.20;;;11.90;;
2872;SDS011;1444;49.166;7.312;2022-12-07T06:51:09;22.50;;;11.17;;
2872;SDS011;1444;49.166;7.312;2022-12-07T06:53:36;20.67;;;11.30;;
2872;SDS011;1444;49.166;7.312;2022-12-07T06:56:03;31.60;;;15.30;;
2872;SDS011;1444;49.166;7.312;2022-12-07T06:58:31;36.13;;;12.30;;
2872;SDS011;1444;49.166;7.312;2022-12-07T07:00:57;28.93;;;12.13;;
2872;SDS011;1444;49.166;7.312;2022-12-07T07:03:24;40.17;;;18.20;;
2872;SDS011;1444;49.166;7.312;2022-12-07T07:05:51;33.83;;;14.17;;
2872;SDS011;1444;49.166;7.312;2022-12-07T07:08:19;42.73;;;16.67;;
2872;SDS011;1444;49.166;7.312;2022-12-07T07:10:46;34.73;;;14.17;;
2872;SDS011;1444;49.166;7.312;2022-12-07T07:13:13;48.97;;;15.37;;
2872;SDS011;1444;49.166;7.312;2022-12-07T07:15:39;30.23;;;11.73;;
2872;SDS011;1444;49.166;7.312;2022-12-07T07:18:07;24.00;;;12.17;;
2872;SDS011;1444;49.166;7.312;2022-12-07T07:20:34;39.20;;;13.17;;
2872;SDS011;1444;49.166;7.312;2022-12-07T07:23:01;36.33;;;15.30;;
2872;SDS011;1444;49.166;7.312;2022-12-07T07:25:29;38.80;;;16.70;;
2872;SDS011;1444;49.166;7.312;2022-12-07T07:27:56;30.80;;;12.30;;
2872;SDS011;1444;49.166;7.312;2022-12-07T07:30:22;52.67;;;20.57;;
2872;SDS011;1444;49.166;7.312;2022-12-07T07:32:49;37.37;;;15.77;;
2872;SDS011;1444;49.166;7.312;2022-12-07T07:35:16;36.80;;;12.30;;
2872;SDS011;1444;49.166;7.312;2022-12-07T07:37:43;30.57;;;12.70;;
2872;SDS011;1444;49.166;7.312;2022-12-07T07:40:10;42.07;;;13.23;;
2872;SDS011;1444;49.166;7.312;2022-12-07T07:42:38;56.60;;;14.87;;
2872;SDS011;1444;49.166;7.312;2022-12-07T07:45:06;28.80;;;12.47;;
2872;SDS011;1444;49.166;7.312;2022-12-07T07:47:33;27.33;;;12.50;;
2872;SDS011;1444;49.166;7.312;2022-12-07T07:50:00;39.37;;;14.37;;
2872;SDS011;1444;49.166;7.312;2022-12-07T07:52:27;38.20;;;17.80;;
2872;SDS011;1444;49.166;7.312;2022-12-07T07:54:53;33.17;;;15.33;;
2872;SDS011;1444;49.166;7.312;2022-12-07T07:57:20;33.63;;;14.70;;
2872;SDS011;1444;49.166;7.312;2022-12-07T07:59:48;30.50;;;14.77;;
2872;SDS011;1444;49.166;7.312;2022-12-07T08:02:16;44.87;;;18.83;;
2872;SDS011;1444;49.166;7.312;2022-12-07T08:04:44;36.20;;;14.33;;
2872;SDS011;1444;49.166;7.312;2022-12-07T08:07:11;37.43;;;15.63;;
2872;SDS011;1444;49.166;7.312;2022-12-07T08:09:39;31.40;;;14.17;;
2872;SDS011;1444;49.166;7.312;2022-12-07T08:12:06;34.63;;;12.93;;
2872;SDS011;1444;49.166;7.312;2022-12-07T08:14:33;33.00;;;15.20;;
2872;SDS011;1444;49.166;7.312;2022-12-07T08:17:01;38.77;;;16.20;;
2872;SDS011;1444;49.166;7.312;2022-12-07T08:19:28;37.70;;;15.27;;
2872;SDS011;1444;49.166;7.312;2022-12-07T08:21:55;34.67;;;15.53;;
2872;SDS011;1444;49.166;7.312;2022-12-07T08:24:22;45.90;;;19.10;;
2872;SDS011;1444;49.166;7.312;2022-12-07T08:26:50;40.80;;;16.23;;
2872;SDS011;1444;49.166;7.312;2022-12-07T08:29:17;48.33;;;18.20;;
2872;SDS011;1444;49.166;7.312;2022-12-07T08:31:43;28.57;;;13.60;;
2872;SDS011;1444;49.166;7.312;2022-12-07T08:34:12;40.37;;;14.47;;
2872;SDS011;1444;49.166;7.312;2022-12-07T08:36:39;31.87;;;14.50;;
2872;SDS011;1444;49.166;7.312;2022-12-07T08:39:05;59.10;;;22.70;;
2872;SDS011;1444;49.166;7.312;2022-12-07T08:41:32;41.23;;;17.10;;
2872;SDS011;1444;49.166;7.312;2022-12-07T08:43:59;44.20;;;17.87;;
2872;SDS011;1444;49.166;7.312;2022-12-07T08:46:26;52.80;;;19.40;;
2872;SDS011;1444;49.166;7.312;2022-12-07T08:48:58;49.83;;;16.87;;
2872;SDS011;1444;49.166;7.312;2022-12-07T08:51:31;37.13;;;16.83;;
2872;SDS011;1444;49.166;7.312;2022-12-07T08:53:58;51.83;;;14.50;;
2872;SDS011;1444;49.166;7.312;2022-12-07T08:56:27;38.17;;;17.30;;
2872;SDS011;1444;49.166;7.312;2022-12-07T08:58:54;33.67;;;15.70;;
2872;SDS011;1444;49.166;7.312;2022-12-07T09:01:20;52.63;;;19.43;;
2872;SDS011;1444;49.166;7.312;2022-12-07T09:03:47;40.87;;;18.23;;
2872;SDS011;1444;49.166;7.312;2022-12-07T09:06:14;45.20;;;18.57;;
2872;SDS011;1444;49.166;7.312;2022-12-07T09:08:43;34.67;;;17.00;;
2872;SDS011;1444;49.166;7.312;2022-12-07T09:11:13;40.20;;;17.77;;
2872;SDS011;1444;49.166;7.312;2022-12-07T09:13:40;47.93;;;19.13;;
2872;SDS011;1444;49.166;7.312;2022-12-07T09:16:07;48.87;;;18.63;;
2872;SDS011;1444;49.166;7.312;2022-12-07T09:18:34;51.20;;;21.87;;
2872;SDS011;1444;49.166;7.312;2022-12-07T09:21:00;38.63;;;17.43;;
2872;SDS011;1444;49.166;7.312;2022-12-07T09:23:27;63.57;;;20.30;;
2872;SDS011;1444;49.166;7.312;2022-12-07T09:25:58;50.90;;;22.10;;
2872;SDS011;1444;49.166;7.312;2022-12-07T09:28:25;41.17;;;19.83;;
2872;SDS011;1444;49.166;7.312;2022-12-07T09:30:52;41.40;;;15.30;;
2872;SDS011;1444;49.166;7.312;2022-12-07T09:33:19;64.23;;;24.00;;
2872;SDS011;1444;49.166;7.312;2022-12-07T09:35:46;57.73;;;24.47;;
2872;SDS011;1444;49.166;7.312;2022-12-07T09:38:13;65.60;;;25.77;;
2872;SDS011;1444;49.166;7.312;2022-12-07T09:40:40;41.13;;;16.53;;
2872;SDS011;1444;49.166;7.312;2022-12-07T09:43:12;51.77;;;20.47;;
2872;SDS011;1444;49.166;7.312;2022-12-07T09:45:42;43.83;;;18.83;;
2872;SDS011;1444;49.166;7.312;2022-12-07T09:48:13;42.37;;;17.20;;
2872;SDS011;1444;49.166;7.312;2022-12-07T09:50:44;45.37;;;18.17;;
2872;SDS011;1444;49.166;7.312;2022-12-07T09:53:13;40.47;;;18.73;;
2872;SDS011;1444;49.166;7.312;2022-12-07T09:55:44;37.27;;;15.53;;
2872;SDS011;1444;49.166;7.312;2022-12-07T09:58:13;52.20;;;20.97;;
2872;SDS011;1444;49.166;7.312;2022-12-07T10:00:46;52.63;;;26.37;;
2872;SDS011;1444;49.166;7.312;2022-12-07T10:03:13;53.57;;;18.80;;
2872;SDS011;1444;49.166;7.312;2022-12-07T10:05:41;39.20;;;15.20;;
2872;SDS011;1444;49.166;7.312;2022-12-07T10:08:10;43.10;;;19.50;;
2872;SDS011;1444;49.166;7.312;2022-12-07T10:10:38;41.83;;;22.00;;
2872;SDS011;1444;49.166;7.312;2022-12-07T10:13:06;47.87;;;22.33;;
2872;SDS011;1444;49.166;7.312;2022-12-07T10:15:43;24.27;;;13.83;;
2872;SDS011;1444;49.166;7.312;2022-12-07T10:18:21;60.03;;;24.90;;
2872;SDS011;1444;49.166;7.312;2022-12-07T10:21:00;47.90;;;20.87;;
2872;SDS011;1444;49.166;7.312;2022-12-07T10:23:27;44.60;;;18.37;;
2872;SDS011;1444;49.166;7.312;2022-12-07T10:25:54;47.73;;;22.23;;
2872;SDS011;1444;49.166;7.312;2022-12-07T10:28:21;50.47;;;20.93;;
2872;SDS011;1444;49.166;7.312;2022-12-07T10:30:51;49.97;;;23.90;;
2872;SDS011;1444;49.166;7.312;2022-12-07T10:33:28;62.60;;;24.80;;
2872;SDS011;1444;49.166;7.312;2022-12-07T10:35:57;58.73;;;23.10;;
2872;SDS011;1444;49.166;7.312;2022-12-07T10:38:25;41.30;;;14.23;;
2872;SDS011;1444;49.166;7.312;2022-12-07T10:41:02;63.80;;;23.77;;
2872;SDS011;1444;49.166;7.312;2022-12-07T10:43:30;42.67;;;18.67;;
2872;SDS011;1444;49.166;7.312;2022-12-07T10:46:07;48.13;;;21.50;;
2872;SDS011;1444;49.166;7.312;2022-12-07T10:48:59;41.47;;;19.20;;
2872;SDS011;1444;49.166;7.312;2022-12-07T10:51:37;57.07;;;19.40;;
2872;SDS011;1444;49.166;7.312;2022-12-07T10:54:14;50.87;;;22.07;;
2872;SDS011;1444;49.166;7.312;2022-12-07T10:56:55;45.53;;;20.63;;
2872;SDS011;1444;49.166;7.312;2022-12-07T10:59:44;43.40;;;18.53;;
2872;SDS011;1444;49.166;7.312;2022-12-07T11:02:30;58.63;;;23.37;;
2872;SDS011;1444;49.166;7.312;2022-12-07T11:05:16;47.13;;;21.03;;
2872;SDS011;1444;49.166;7.312;2022-12-07T11:07:52;57.00;;;21.37;;
2872;SDS011;1444;49.166;7.312;2022-12-07T11:10:30;47.63;;;22.07;;
2872;SDS011;1444;49.166;7.312;2022-12-07T11:13:17;39.67;;;18.63;;
2872;SDS011;1444;49.166;7.312;2022-12-07T11:15:53;52.93;;;21.80;;
2872;SDS011;1444;49.166;7.312;2022-12-07T11:18:32;55.00;;;23.43;;
2872;SDS011;1444;49.166;7.312;2022-12-07T11:21:09;46.37;;;20.00;;
2872;SDS011;1444;49.166;7.312;2022-12-07T11:23:46;44.60;;;19.90;;
2872;SDS011;1444;49.166;7.312;2022-12-07T11:26:22;60.60;;;24.53;;
2872;SDS011;1444;49.166;7.312;2022-12-07T11:29:02;45.93;;;21.93;;
2872;SDS011;1444;49.166;7.312;2022-12-07T11:31:44;45.03;;;17.53;;
2872;SDS011;1444;49.166;7.312;2022-12-07T11:34:26;62.60;;;26.60;;
2872;SDS011;1444;49.166;7.312;2022-12-07T11:37:03;48.93;;;23.70;;
2872;SDS011;1444;49.166;7.312;2022-12-07T11:39:39;35.53;;;16.80;;
2872;SDS011;1444;49.166;7.312;2022-12-07T11:42:12;39.83;;;17.27;;
2872;SDS011;1444;49.166;7.312;2022-12-07T11:44:46;38.70;;;15.97;;
2872;SDS011;1444;49.166;7.312;2022-12-07T11:47:18;42.30;;;17.20;;
2872;SDS011;1444;49.166;7.312;2022-12-07T11:49:53;28.57;;;13.43;;
2872;SDS011;1444;49.166;7.312;2022-12-07T11:52:25;45.57;;;20.53;;
2872;SDS011;1444;49.166;7.312;2022-12-07T11:54:56;40.20;;;17.33;;
2872;SDS011;1444;49.166;7.312;2022-12-07T11:57:27;38.23;;;17.03;;
2872;SDS011;1444;49.166;7.312;2022-12-07T12:00:04;43.30;;;16.03;;
2872;SDS011;1444;49.166;7.312;2022-12-07T12:02:41;36.50;;;15.33;;
2872;SDS011;1444;49.166;7.312;2022-12-07T12:05:17;50.50;;;21.80;;
2872;SDS011;1444;49.166;7.312;2022-12-07T12:07:46;34.97;;;15.67;;
2872;SDS011;1444;49.166;7.312;2022-12-07T12:10:20;70.90;;;21.70;;
2872;SDS011;1444;49.166;7.312;2022-12-07T12:13:12;39.00;;;15.93;;
2872;SDS011;1444;49.166;7.312;2022-12-07T12:16:04;43.37;;;19.20;;
2872;SDS011;1444;49.166;7.312;2022-12-07T12:18:42;37.80;;;12.40;;
2872;SDS011;1444;49.166;7.312;2022-12-07T12:21:21;43.93;;;18.43;;
2872;SDS011;1444;49.166;7.312;2022-12-07T12:23:54;31.90;;;13.20;;
2872;SDS011;1444;49.166;7.312;2022-12-07T12:26:26;39.83;;;16.30;;
2872;SDS011;1444;49.166;7.312;2022-12-07T12:28:55;47.97;;;17.30;;
2872;SDS011;1444;49.166;7.312;2022-12-07T12:37:17;40.80;;;16.27;;
2872;SDS011;1444;49.166;7.312;2022-12-07T12:43:27;34.23;;;13.60;;
2872;SDS011;1444;49.166;7.312;2022-12-07T12:55:20;45.53;;;18.33;;
2872;SDS011;1444;49.166;7.312;2022-12-07T12:58:28;48.83;;;20.03;;
2872;SDS011;1444;49.166;7.312;2022-12-07T13:07:04;45.23;;;14.13;;
2872;SDS011;1444;49.166;7.312;2022-12-07T13:09:36;29.33;;;13.33;;
2872;SDS011;1444;49.166;7.312;2022-12-07T13:12:11;35.27;;;14.57;;
2872;SDS011;1444;49.166;7.312;2022-12-07T13:14:52;20.07;;;10.20;;
2872;SDS011;1444;49.166;7.312;2022-12-07T13:23:19;35.37;;;15.10;;
2872;SDS011;1444;49.166;7.312;2022-12-07T13:25:53;28.67;;;13.17;;
2872;SDS011;1444;49.166;7.312;2022-12-07T13:28:25;36.60;;;13.83;;
2872;SDS011;1444;49.166;7.312;2022-12-07T13:31:00;25.90;;;12.17;;
2872;SDS011;1444;49.166;7.312;2022-12-07T13:33:35;24.83;;;10.87;;
2872;SDS011;1444;49.166;7.312;2022-12-07T13:36:02;23.60;;;11.60;;
2872;SDS011;1444;49.166;7.312;2022-12-07T13:38:30;18.47;;;9.37;;
2872;SDS011;1444;49.166;7.312;2022-12-07T13:41:02;28.47;;;13.40;;
2872;SDS011;1444;49.166;7.312;2022-12-07T13:43:31;24.73;;;11.13;;
2872;SDS011;1444;49.166;7.312;2022-12-07T13:46:08;29.27;;;12.17;;
2872;SDS011;1444;49.166;7.312;2022-12-07T13:48:42;22.83;;;11.07;;
2872;SDS011;1444;49.166;7.312;2022-12-07T13:51:16;30.93;;;11.50;;
2872;SDS011;1444;49.166;7.312;2022-12-07T13:53:45;23.43;;;14.47;;
2872;SDS011;1444;49.166;7.312;2022-12-07T13:56:15;24.57;;;12.00;;
2872;SDS011;1444;49.166;7.312;2022-12-07T13:58:42;15.80;;;8.97;;
2872;SDS011;1444;49.166;7.312;2022-12-07T14:01:09;29.43;;;12.97;;
2872;SDS011;1444;49.166;7.312;2022-12-07T14:03:38;21.00;;;9.97;;
2872;SDS011;1444;49.166;7.312;2022-12-07T14:06:06;26.87;;;12.13;;
2872;SDS011;1444;49.166;7.312;2022-12-07T14:08:40;22.10;;;9.60;;
2872;SDS011;1444;49.166;7.312;2022-12-07T14:11:08;27.93;;;9.77;;
2872;SDS011;1444;49.166;7.312;2022-12-07T14:13:44;23.97;;;10.60;;
2872;SDS011;1444;49.166;7.312;2022-12-07T14:16:18;49.77;;;16.00;;
2872;SDS011;1444;49.166;7.312;2022-12-07T14:18:51;26.83;;;11.50;;
2872;SDS011;1444;49.166;7.312;2022-12-07T14:21:18;35.97;;;14.77;;
2872;SDS011;1444;49.166;7.312;2022-12-07T14:24:01;23.70;;;9.53;;
2872;SDS011;1444;49.166;7.312;2022-12-07T14:26:33;28.03;;;12.63;;
2872;SDS011;1444;49.166;7.312;2022-12-07T14:31:47;19.80;;;7.93;;
2872;SDS011;1444;49.166;7.312;2022-12-07T14:34:14;30.23;;;10.50;;
2872;SDS011;1444;49.166;7.312;2022-12-07T14:36:41;20.30;;;9.73;;
2872;SDS011;1444;49.166;7.312;2022-12-07T14:39:07;30.50;;;12.10;;
2872;SDS011;1444;49.166;7.312;2022-12-07T14:41:34;34.00;;;10.63;;
2872;SDS011;1444;49.166;7.312;2022-12-07T14:44:18;38.83;;;14.70;;
2872;SDS011;1444;49.166;7.312;2022-12-07T14:46:47;24.53;;;9.50;;
2872;SDS011;1444;49.166;7.312;2022-12-07T14:49:14;36.90;;;14.63;;
2872;SDS011;1444;49.166;7.312;2022-12-07T14:51:41;21.90;;;10.13;;
2872;SDS011;1444;49.166;7.312;2022-12-07T14:54:12;36.57;;;9.87;;
2872;SDS011;1444;49.166;7.312;2022-12-07T14:56:43;20.73;;;10.93;;
2872;SDS011;1444;49.166;7.312;2022-12-07T14:59:13;32.53;;;13.60;;
2872;SDS011;1444;49.166;7.312;2022-12-07T15:01:40;23.83;;;10.27;;
2872;SDS011;1444;49.166;7.312;2022-12-07T15:04:08;25.43;;;11.30;;
2872;SDS011;1444;49.166;7.312;2022-12-07T15:06:35;26.80;;;13.33;;
2872;SDS011;1444;49.166;7.312;2022-12-07T15:09:02;31.03;;;13.60;;
2872;SDS011;1444;49.166;7.312;2022-12-07T15:11:30;30.00;;;14.10;;
2872;SDS011;1444;49.166;7.312;2022-12-07T15:13:56;20.47;;;10.47;;
2872;SDS011;1444;49.166;7.312;2022-12-07T15:16:37;24.97;;;12.03;;
2872;SDS011;1444;49.166;7.312;2022-12-07T15:19:09;30.77;;;12.20;;
2872;SDS011;1444;49.166;7.312;2022-12-07T15:21:39;29.50;;;12.57;;
2872;SDS011;1444;49.166;7.312;2022-12-07T15:24:07;23.00;;;12.03;;
2872;SDS011;1444;49.166;7.312;2022-12-07T15:26:35;27.40;;;13.07;;
2872;SDS011;1444;49.166;7.312;2022-12-07T15:29:01;24.77;;;12.63;;
2872;SDS011;1444;49.166;7.312;2022-12-07T15:31:28;32.07;;;14.27;;
2872;SDS011;1444;49.166;7.312;2022-12-07T15:33:55;29.07;;;11.23;;
2872;SDS011;1444;49.166;7.312;2022-12-07T15:36:24;34.63;;;15.33;;
2872;SDS011;1444;49.166;7.312;2022-12-07T15:38:53;27.30;;;12.20;;
2872;SDS011;1444;49.166;7.312;2022-12-07T15:41:20;36.17;;;14.73;;
2872;SDS011;1444;49.166;7.312;2022-12-07T15:43:47;18.70;;;8.60;;